Terminal Aerodrome Forecast
Issued by NWS

Current Version | Previous Version | Text Only | Print | Product List | Glossary On
Versions: 1 2 3 4 5 6 7 8 9 10 11 12 13 14 15 16 17 18 19 20 21
000
FTUS46 KLOX 052300
TAFLGB
TAF
KLGB 052339Z 0600/0624 20007KT P6SM BKN045
     FM060200 VRB04KT P6SM BKN030
     FM060900 12006KT P6SM OVC035
     FM061800 18008KT P6SM BKN040=

USA.gov is the U.S. government's official web portal to all federal, state and local government web resources and services.